createdAt,value
2022-09-15T00:02:25.067Z,100.00
2022-09-15T00:04:51.634Z,100.00
2022-09-15T00:07:18.188Z,100.00
2022-09-15T00:09:44.713Z,100.00
2022-09-15T00:12:11.167Z,100.00
2022-09-15T00:14:37.664Z,100.00
2022-09-15T00:17:04.415Z,100.00
2022-09-15T00:19:30.911Z,100.00
2022-09-15T00:21:57.343Z,100.00
2022-09-15T00:24:23.770Z,100.00
2022-09-15T00:26:50.296Z,100.00
2022-09-15T00:29:16.759Z,100.00
2022-09-15T00:31:43.216Z,100.00
2022-09-15T00:34:13.707Z,100.00
2022-09-15T00:36:40.608Z,100.00
2022-09-15T00:39:07.085Z,100.00
2022-09-15T00:41:33.922Z,100.00
2022-09-15T00:44:02.215Z,100.00
2022-09-15T00:46:33.075Z,100.00
2022-09-15T00:49:23.236Z,100.00
2022-09-15T00:51:49.658Z,100.00
2022-09-15T00:54:36.751Z,100.00
2022-09-15T00:57:08.486Z,100.00
2022-09-15T00:59:39.103Z,100.00
2022-09-15T01:02:12.112Z,100.00
2022-09-15T01:04:38.986Z,100.00
2022-09-15T01:07:10.918Z,100.00
2022-09-15T01:09:44.811Z,100.00
2022-09-15T01:12:11.462Z,100.00
2022-09-15T01:14:37.915Z,100.00
2022-09-15T01:17:07.352Z,100.00
2022-09-15T01:20:11.545Z,100.00
2022-09-15T01:22:52.993Z,100.00
2022-09-15T01:25:43.617Z,100.00
2022-09-15T01:28:44.479Z,100.00
2022-09-15T01:31:24.267Z,100.00
2022-09-15T01:34:07.813Z,100.00
2022-09-15T01:36:53.792Z,100.00
2022-09-15T01:39:32.190Z,100.00
2022-09-15T01:42:03.597Z,100.00
2022-09-15T01:44:35.163Z,100.00
2022-09-15T01:47:07.975Z,100.00
2022-09-15T01:49:42.781Z,100.00
2022-09-15T01:52:09.289Z,100.00
2022-09-15T01:54:42.419Z,100.00
2022-09-15T01:57:08.901Z,100.00
2022-09-15T01:59:35.466Z,100.00
2022-09-15T02:02:07.966Z,100.00
2022-09-15T02:04:41.472Z,100.00
2022-09-15T02:07:35.521Z,100.00
2022-09-15T02:10:11.500Z,100.00
2022-09-15T02:12:56.441Z,100.00
2022-09-15T02:15:30.288Z,100.00
2022-09-15T02:17:59.128Z,100.00
2022-09-15T02:20:49.339Z,100.00
2022-09-15T02:23:25.188Z,100.00
2022-09-15T02:25:57.113Z,100.00
2022-09-15T02:28:30.112Z,100.00
2022-09-15T02:30:58.682Z,100.00
2022-09-15T02:33:32.291Z,100.00
2022-09-15T02:36:00.124Z,100.00
2022-09-15T02:38:30.099Z,100.00
2022-09-15T02:40:57.094Z,100.00
2022-09-15T02:43:23.619Z,100.00
2022-09-15T02:45:50.768Z,100.00
2022-09-15T02:48:17.688Z,100.00
2022-09-15T02:50:44.140Z,100.00
2022-09-15T02:53:10.594Z,100.00
2022-09-15T02:55:37.091Z,100.00
2022-09-15T02:58:03.799Z,100.00
2022-09-15T03:00:31.187Z,100.00
2022-09-15T03:02:58.345Z,100.00
2022-09-15T03:05:29.996Z,100.00
2022-09-15T03:07:57.211Z,100.00
2022-09-15T03:10:25.745Z,100.00
2022-09-15T03:12:54.397Z,100.00
2022-09-15T03:15:23.872Z,100.00
2022-09-15T03:17:50.736Z,100.00
2022-09-15T03:20:20.933Z,100.00
2022-09-15T03:22:48.242Z,100.00
2022-09-15T03:25:15.784Z,100.00
2022-09-15T03:27:42.948Z,100.00
2022-09-15T03:30:11.068Z,100.00
2022-09-15T03:32:37.869Z,100.00
2022-09-15T03:35:05.329Z,100.00
2022-09-15T03:37:32.040Z,100.00
2022-09-15T03:39:58.849Z,100.00
2022-09-15T03:42:25.385Z,100.00
2022-09-15T03:44:51.857Z,100.00
2022-09-15T03:47:18.295Z,100.00
2022-09-15T03:49:44.765Z,100.00
2022-09-15T03:52:12.185Z,100.00
2022-09-15T03:54:38.647Z,100.00
2022-09-15T03:57:05.195Z,100.00
2022-09-15T03:59:31.654Z,100.00
2022-09-15T04:01:58.157Z,100.00
2022-09-15T04:04:24.683Z,100.00
2022-09-15T04:06:51.162Z,100.00
2022-09-15T04:09:20.267Z,100.00
2022-09-15T04:11:47.678Z,100.00
2022-09-15T04:14:14.208Z,100.00
2022-09-15T04:16:40.848Z,100.00
2022-09-15T04:19:07.537Z,100.00
2022-09-15T04:21:34.035Z,100.00
2022-09-15T04:24:01.232Z,100.00
2022-09-15T04:26:31.731Z,100.00
2022-09-15T04:29:03.643Z,100.00
2022-09-15T04:31:31.489Z,100.00
2022-09-15T04:33:58.215Z,100.00
2022-09-15T04:36:27.468Z,100.00
2022-09-15T04:38:55.414Z,100.00
2022-09-15T04:41:22.521Z,100.00
2022-09-15T04:43:49.530Z,100.00
2022-09-15T04:46:16.893Z,100.00
2022-09-15T04:48:45.462Z,100.00
2022-09-15T04:51:15.353Z,100.00
2022-09-15T04:53:42.309Z,100.00
2022-09-15T04:56:12.053Z,100.00
2022-09-15T04:58:41.054Z,100.00
2022-09-15T05:01:19.926Z,100.00
2022-09-15T05:03:46.895Z,100.00
2022-09-15T05:06:16.665Z,100.00
2022-09-15T05:08:43.506Z,100.00
2022-09-15T05:11:12.097Z,100.00
2022-09-15T05:13:40.248Z,100.00
2022-09-15T05:16:12.180Z,100.00
2022-09-15T05:18:39.794Z,100.00
2022-09-15T05:21:07.898Z,100.00
2022-09-15T05:23:35.903Z,100.00
2022-09-15T05:26:06.241Z,100.00
2022-09-15T05:28:34.413Z,100.00
2022-09-15T05:31:00.995Z,100.00
2022-09-15T05:33:27.723Z,100.00
2022-09-15T05:35:59.362Z,100.00
2022-09-15T05:38:28.417Z,100.00
2022-09-15T05:40:55.879Z,100.00
2022-09-15T05:43:22.543Z,100.00
2022-09-15T05:45:55.493Z,100.00
2022-09-15T05:48:22.093Z,100.00
2022-09-15T05:50:50.534Z,100.00
2022-09-15T05:53:17.226Z,100.00
2022-09-15T05:55:43.897Z,100.00
2022-09-15T05:58:10.929Z,100.00
2022-09-15T06:00:37.932Z,100.00
2022-09-15T06:03:04.639Z,100.00
2022-09-15T06:05:31.246Z,100.00
2022-09-15T06:07:57.750Z,100.00
2022-09-15T06:10:25.099Z,100.00
2022-09-15T06:12:55.179Z,100.00
2022-09-15T06:15:22.957Z,100.00
2022-09-15T06:17:49.752Z,100.00
2022-09-15T06:20:16.893Z,100.00
2022-09-15T06:22:43.357Z,100.00
2022-09-15T06:25:10.724Z,100.00
2022-09-15T06:27:37.359Z,100.00
2022-09-15T06:30:04.464Z,100.00
2022-09-15T06:32:31.044Z,100.00
2022-09-15T06:34:57.792Z,100.00
2022-09-15T06:37:24.244Z,100.00
2022-09-15T06:39:51.194Z,100.00
2022-09-15T06:42:17.878Z,100.00
2022-09-15T06:44:44.359Z,100.00
2022-09-15T06:47:15.299Z,100.00
2022-09-15T06:49:41.754Z,100.00
2022-09-15T06:52:08.478Z,100.00
2022-09-15T06:54:35.092Z,100.00
2022-09-15T06:57:01.540Z,100.00
2022-09-15T06:59:28.215Z,100.00
2022-09-15T07:01:55.661Z,100.00
2022-09-15T07:04:22.695Z,100.00
2022-09-15T07:06:50.437Z,100.00
2022-09-15T07:09:16.903Z,100.00
2022-09-15T07:11:43.372Z,100.00
2022-09-15T07:14:11.130Z,100.00
2022-09-15T07:16:38.311Z,100.00
2022-09-15T07:19:05.946Z,100.00
2022-09-15T07:21:33.756Z,100.00
2022-09-15T07:24:03.885Z,100.00
2022-09-15T07:26:33.944Z,100.00
2022-09-15T07:29:02.997Z,100.00
2022-09-15T07:31:32.314Z,100.00
2022-09-15T07:34:00.190Z,100.00
2022-09-15T07:36:27.190Z,100.00
2022-09-15T07:38:53.822Z,100.00
2022-09-15T07:41:23.857Z,100.00
2022-09-15T07:43:52.222Z,100.00
2022-09-15T07:46:20.455Z,100.00
2022-09-15T07:48:49.006Z,100.00
2022-09-15T07:51:16.608Z,100.00
2022-09-15T07:53:45.076Z,100.00
2022-09-15T07:56:12.007Z,100.00
2022-09-15T07:58:38.970Z,100.00
2022-09-15T08:01:11.208Z,100.00
2022-09-15T08:03:42.925Z,100.00
2022-09-15T08:06:10.683Z,100.00
2022-09-15T08:08:38.870Z,100.00
2022-09-15T08:11:13.061Z,100.00
2022-09-15T08:13:41.697Z,100.00
2022-09-15T08:16:10.866Z,100.00
2022-09-15T08:18:38.316Z,100.00
2022-09-15T08:21:10.958Z,100.00
2022-09-15T08:23:38.380Z,100.00
2022-09-15T08:26:13.814Z,100.00
2022-09-15T08:28:42.123Z,100.00
2022-09-15T08:31:11.717Z,100.00
2022-09-15T08:33:43.224Z,100.00
2022-09-15T08:36:12.142Z,100.00
2022-09-15T08:38:44.352Z,100.00
2022-09-15T08:41:21.567Z,100.00
2022-09-15T08:43:54.815Z,100.00
2022-09-15T08:46:28.057Z,100.00
2022-09-15T08:49:03.148Z,100.00
2022-09-15T08:51:42.065Z,100.00
2022-09-15T08:54:20.526Z,100.00
2022-09-15T08:56:48.568Z,100.00
2022-09-15T08:59:17.649Z,100.00
2022-09-15T09:02:27.033Z,100.00
2022-09-15T09:05:21.767Z,100.00
2022-09-15T09:07:51.309Z,100.00
2022-09-15T09:10:31.052Z,100.00
2022-09-15T09:13:07.654Z,100.00
2022-09-15T09:15:52.638Z,100.00
2022-09-15T09:18:33.185Z,100.00
2022-09-15T09:21:21.597Z,100.00
2022-09-15T09:23:57.209Z,100.00
2022-09-15T09:26:23.634Z,100.00
2022-09-15T09:28:57.933Z,100.00
2022-09-15T09:31:25.863Z,100.00
2022-09-15T09:34:02.141Z,100.00
2022-09-15T09:36:28.650Z,100.00
2022-09-15T09:38:56.139Z,100.00
2022-09-15T09:41:35.587Z,100.00
2022-09-15T09:44:12.824Z,100.00
2022-09-15T09:46:41.844Z,100.00
2022-09-15T09:49:18.821Z,100.00
2022-09-15T09:51:52.293Z,100.00
2022-09-15T09:54:21.583Z,100.00
2022-09-15T09:56:49.756Z,100.00
2022-09-15T09:59:39.298Z,98.27
2022-09-15T10:02:13.123Z,98.87
2022-09-15T10:04:45.048Z,92.01
2022-09-15T10:07:12.688Z,94.04
2022-09-15T10:09:39.276Z,93.21
2022-09-15T10:12:07.440Z,89.74
2022-09-15T10:14:42.160Z,88.38
2022-09-15T10:17:10.110Z,87.21
2022-09-15T10:19:58.031Z,77.74
2022-09-15T10:22:33.230Z,79.57
2022-09-15T10:25:01.773Z,78.66
2022-09-15T10:27:37.416Z,79.75
2022-09-15T10:30:24.416Z,85.23
2022-09-15T10:32:51.742Z,83.15
2022-09-15T10:35:19.770Z,85.89
2022-09-15T10:38:12.328Z,82.89
2022-09-15T10:41:23.453Z,84.30
2022-09-15T10:43:59.080Z,82.26
2022-09-15T10:46:39.459Z,79.43
2022-09-15T10:49:40.849Z,83.15
2022-09-15T10:52:29.292Z,82.72
2022-09-15T10:55:12.215Z,88.57
2022-09-15T10:58:17.191Z,93.48
2022-09-15T11:01:00.792Z,94.41
2022-09-15T11:03:42.360Z,93.93
2022-09-15T11:06:20.065Z,91.78
2022-09-15T11:09:07.001Z,90.20
2022-09-15T11:11:33.381Z,88.80
2022-09-15T11:14:29.830Z,86.87
2022-09-15T11:17:19.665Z,87.08
2022-09-15T11:20:10.215Z,84.82
2022-09-15T11:22:58.301Z,90.16
2022-09-15T11:25:30.246Z,88.18
2022-09-15T11:28:18.397Z,86.53
2022-09-15T11:30:56.169Z,82.00
2022-09-15T11:33:36.837Z,82.06
2022-09-15T11:36:09.765Z,82.29
2022-09-15T11:38:47.970Z,81.22
2022-09-15T11:41:38.794Z,79.47
2022-09-15T11:44:17.031Z,74.29
2022-09-15T11:47:02.255Z,77.42
2022-09-15T11:49:35.083Z,81.11
2022-09-15T11:52:22.651Z,85.06
2022-09-15T11:54:58.607Z,88.81
2022-09-15T11:57:30.483Z,89.28
2022-09-15T12:00:05.625Z,93.79
2022-09-15T12:02:36.959Z,92.82
2022-09-15T12:05:11.333Z,89.25
2022-09-15T12:07:45.935Z,86.04
2022-09-15T12:10:21.509Z,84.62
2022-09-15T12:12:51.437Z,82.36
2022-09-15T12:15:19.517Z,82.79
2022-09-15T12:18:01.329Z,77.17
2022-09-15T12:20:51.370Z,69.45
2022-09-15T12:23:32.808Z,69.55
2022-09-15T12:26:15.952Z,71.41
2022-09-15T12:29:04.353Z,69.48
2022-09-15T12:31:35.098Z,71.85
2022-09-15T12:34:04.159Z,69.29
2022-09-15T12:36:32.651Z,70.33
2022-09-15T12:39:00.856Z,72.26
2022-09-15T12:41:27.895Z,74.32
2022-09-15T12:44:02.444Z,73.08
2022-09-15T12:46:29.116Z,72.71
2022-09-15T12:49:01.732Z,75.68
2022-09-15T12:51:29.501Z,72.87
2022-09-15T12:54:04.786Z,75.54
2022-09-15T12:56:33.659Z,76.07
2022-09-15T12:59:06.745Z,74.66
2022-09-15T13:01:54.970Z,76.95
2022-09-15T13:04:51.192Z,80.64
2022-09-15T13:07:18.722Z,75.01
2022-09-15T13:10:04.746Z,74.43
2022-09-15T13:12:38.061Z,77.11
2022-09-15T13:15:07.655Z,79.97
2022-09-15T13:17:34.897Z,76.39
2022-09-15T13:20:14.947Z,77.60
2022-09-15T13:22:47.289Z,79.42
2022-09-15T13:25:14.693Z,76.04
2022-09-15T13:27:45.136Z,77.50
2022-09-15T13:30:20.892Z,74.59
2022-09-15T13:32:53.400Z,75.04
2022-09-15T13:35:30.559Z,71.02
2022-09-15T13:38:21.257Z,71.21
2022-09-15T13:41:10.143Z,72.92
2022-09-15T13:44:13.963Z,72.08
2022-09-15T13:47:18.000Z,75.33
2022-09-15T13:50:14.729Z,76.25
2022-09-15T13:53:20.799Z,79.09
2022-09-15T13:55:48.311Z,79.77
2022-09-15T14:01:07.112Z,84.37
2022-09-15T14:03:49.000Z,84.75
2022-09-15T14:06:19.779Z,85.55
2022-09-15T14:08:51.112Z,83.36
2022-09-15T14:11:23.699Z,83.51
2022-09-15T14:13:51.305Z,85.44
2022-09-15T14:16:24.269Z,93.49
2022-09-15T14:18:51.879Z,100.00
2022-09-15T14:21:24.296Z,100.00
2022-09-15T14:23:53.052Z,100.00
2022-09-15T14:26:22.760Z,100.00
2022-09-15T14:28:52.979Z,100.00
2022-09-15T14:31:31.710Z,97.71
2022-09-15T14:33:58.441Z,99.74
2022-09-15T14:36:31.866Z,100.00
2022-09-15T14:39:13.713Z,95.72
2022-09-15T14:41:40.222Z,92.31
2022-09-15T14:45:55.049Z,90.75
2022-09-15T14:47:25.673Z,90.72
2022-09-15T14:50:26.331Z,87.85
2022-09-15T14:53:10.550Z,85.11
2022-09-15T14:55:41.099Z,86.05
2022-09-15T14:58:17.977Z,89.43
2022-09-15T15:01:00.184Z,94.03
2022-09-15T15:03:32.913Z,90.21
2022-09-15T15:06:28.483Z,92.21
2022-09-15T15:09:30.428Z,93.58
2022-09-15T15:12:02.201Z,96.55
2022-09-15T15:14:28.990Z,99.46
2022-09-15T15:17:06.131Z,97.80
2022-09-15T15:19:42.591Z,97.34
2022-09-15T15:22:12.089Z,93.50
2022-09-15T15:24:43.994Z,94.51
2022-09-15T15:27:32.326Z,94.17
2022-09-15T15:30:26.656Z,96.27
2022-09-15T15:32:54.179Z,96.64
2022-09-15T15:35:21.262Z,97.06
2022-09-15T15:37:48.301Z,96.89
2022-09-15T15:40:19.451Z,98.06
2022-09-15T15:43:06.848Z,99.65
2022-09-15T15:45:36.043Z,100.00
2022-09-15T15:48:04.333Z,100.00
2022-09-15T15:50:32.592Z,100.00
2022-09-15T15:53:00.842Z,100.00
2022-09-15T15:55:41.759Z,100.00
2022-09-15T15:58:10.512Z,100.00
2022-09-15T16:00:51.144Z,100.00
2022-09-15T16:03:19.005Z,100.00
2022-09-15T16:05:48.460Z,100.00
2022-09-15T16:08:40.158Z,100.00
2022-09-15T16:11:10.073Z,100.00
2022-09-15T16:13:36.518Z,100.00
2022-09-15T16:16:13.874Z,100.00
2022-09-15T16:18:40.502Z,100.00
2022-09-15T16:21:07.005Z,100.00
2022-09-15T16:23:33.454Z,100.00
2022-09-15T16:25:59.869Z,100.00
2022-09-15T16:28:26.837Z,100.00
2022-09-15T16:30:53.387Z,100.00
2022-09-15T16:33:20.491Z,100.00
2022-09-15T16:35:56.004Z,100.00
2022-09-15T16:38:25.470Z,100.00
2022-09-15T16:40:52.296Z,100.00
2022-09-15T16:43:23.619Z,100.00
2022-09-15T16:45:51.346Z,100.00
2022-09-15T16:48:18.572Z,100.00
2022-09-15T16:50:56.009Z,100.00
2022-09-15T16:53:33.281Z,100.00
2022-09-15T16:55:59.784Z,100.00
2022-09-15T16:58:26.358Z,100.00
2022-09-15T17:00:53.646Z,100.00
2022-09-15T17:03:23.962Z,100.00
2022-09-15T17:05:55.332Z,100.00
2022-09-15T17:08:25.706Z,100.00
2022-09-15T17:10:53.178Z,100.00
2022-09-15T17:13:26.402Z,100.00
2022-09-15T17:15:56.125Z,100.00
2022-09-15T17:18:23.353Z,100.00
2022-09-15T17:20:50.961Z,100.00
2022-09-15T17:23:25.362Z,100.00
2022-09-15T17:25:53.858Z,100.00
2022-09-15T17:28:22.672Z,100.00
2022-09-15T17:30:57.054Z,100.00
2022-09-15T17:33:24.236Z,100.00
2022-09-15T17:35:51.196Z,100.00
2022-09-15T17:38:20.314Z,100.00
2022-09-15T17:40:47.878Z,100.00
2022-09-15T17:43:16.848Z,100.00
2022-09-15T17:45:43.716Z,100.00
2022-09-15T17:48:10.328Z,100.00
2022-09-15T17:50:38.125Z,100.00
2022-09-15T17:53:15.873Z,100.00
2022-09-15T17:55:42.518Z,100.00
2022-09-15T17:58:09.427Z,100.00
2022-09-15T18:00:38.273Z,100.00
2022-09-15T18:03:17.789Z,100.00
2022-09-15T18:05:44.286Z,100.00
2022-09-15T18:08:11.034Z,100.00
2022-09-15T18:10:37.614Z,100.00
2022-09-15T18:13:06.235Z,100.00
2022-09-15T18:15:35.100Z,100.00
2022-09-15T18:18:04.270Z,100.00
2022-09-15T18:20:33.107Z,100.00
2022-09-15T18:23:00.256Z,100.00
2022-09-15T18:25:30.978Z,100.00
2022-09-15T18:28:02.239Z,100.00
2022-09-15T18:30:31.508Z,100.00
2022-09-15T18:32:58.908Z,100.00
2022-09-15T18:35:25.958Z,100.00
2022-09-15T18:37:58.330Z,100.00
2022-09-15T18:40:27.033Z,100.00
2022-09-15T18:42:54.122Z,100.00
2022-09-15T18:45:22.197Z,100.00
2022-09-15T18:47:50.540Z,100.00
2022-09-15T18:50:20.301Z,100.00
2022-09-15T18:52:47.087Z,100.00
2022-09-15T18:55:16.588Z,100.00
2022-09-15T18:57:43.799Z,100.00
2022-09-15T19:00:14.408Z,100.00
2022-09-15T19:02:41.325Z,100.00
2022-09-15T19:05:11.271Z,100.00
2022-09-15T19:07:41.790Z,100.00
2022-09-15T19:10:10.854Z,100.00
2022-09-15T19:12:38.227Z,100.00
2022-09-15T19:15:10.655Z,100.00
2022-09-15T19:17:39.259Z,100.00
2022-09-15T19:20:08.299Z,100.00
2022-09-15T19:22:35.455Z,100.00
2022-09-15T19:25:02.381Z,100.00
2022-09-15T19:27:28.997Z,100.00
2022-09-15T19:29:55.571Z,100.00
2022-09-15T19:32:22.601Z,100.00
2022-09-15T19:34:49.792Z,100.00
2022-09-15T19:37:19.122Z,100.00
2022-09-15T19:39:46.496Z,100.00
2022-09-15T19:42:13.429Z,100.00
2022-09-15T19:44:41.478Z,100.00
2022-09-15T19:47:08.911Z,100.00
2022-09-15T19:49:35.607Z,100.00
2022-09-15T19:52:02.182Z,100.00
2022-09-15T19:54:30.483Z,100.00
2022-09-15T19:56:57.342Z,100.00
2022-09-15T19:59:28.696Z,100.00
2022-09-15T20:01:56.837Z,100.00
2022-09-15T20:04:23.409Z,100.00
2022-09-15T20:06:49.880Z,100.00
2022-09-15T20:09:16.749Z,100.00
2022-09-15T20:11:43.736Z,100.00
2022-09-15T20:14:10.236Z,100.00
2022-09-15T20:16:37.059Z,100.00
2022-09-15T20:19:04.889Z,100.00
2022-09-15T20:21:50.835Z,100.00
2022-09-15T20:24:19.624Z,100.00
2022-09-15T20:26:46.449Z,100.00
2022-09-15T20:29:13.324Z,100.00
2022-09-15T20:31:40.272Z,100.00
2022-09-15T20:34:06.814Z,100.00
2022-09-15T20:36:36.066Z,100.00
2022-09-15T20:39:05.255Z,100.00
2022-09-15T20:41:32.006Z,100.00
2022-09-15T20:43:58.656Z,100.00
2022-09-15T20:46:25.284Z,100.00
2022-09-15T20:48:52.627Z,100.00
2022-09-15T20:51:22.827Z,100.00
2022-09-15T20:53:52.771Z,100.00
2022-09-15T20:56:23.201Z,100.00
2022-09-15T20:58:49.661Z,100.00
2022-09-15T21:01:27.724Z,100.00
2022-09-15T21:03:57.491Z,100.00
2022-09-15T21:06:26.817Z,100.00
2022-09-15T21:08:54.906Z,100.00
2022-09-15T21:11:22.196Z,100.00
2022-09-15T21:13:49.266Z,100.00
2022-09-15T21:16:18.500Z,100.00
2022-09-15T21:18:45.679Z,100.00
2022-09-15T21:21:18.682Z,100.00
2022-09-15T21:23:48.191Z,100.00
2022-09-15T21:26:17.289Z,100.00
2022-09-15T21:28:44.910Z,100.00
2022-09-15T21:31:14.945Z,100.00
2022-09-15T21:33:41.959Z,100.00
2022-09-15T21:36:09.999Z,100.00
2022-09-15T21:38:40.514Z,100.00
2022-09-15T21:41:09.337Z,100.00
2022-09-15T21:43:38.144Z,100.00
2022-09-15T21:46:06.970Z,100.00
2022-09-15T21:48:34.953Z,100.00
2022-09-15T21:51:03.106Z,100.00
2022-09-15T21:53:30.023Z,100.00
2022-09-15T21:56:00.219Z,100.00
2022-09-15T21:58:27.180Z,100.00
2022-09-15T22:00:53.841Z,100.00
2022-09-15T22:03:20.867Z,100.00
2022-09-15T22:05:47.964Z,100.00
2022-09-15T22:08:16.191Z,100.00
2022-09-15T22:10:44.340Z,100.00
2022-09-15T22:13:11.840Z,100.00
2022-09-15T22:15:38.505Z,100.00
2022-09-15T22:18:05.135Z,100.00
2022-09-15T22:20:31.594Z,100.00
2022-09-15T22:23:01.376Z,100.00
2022-09-15T22:25:28.969Z,100.00
2022-09-15T22:27:55.513Z,100.00
2022-09-15T22:30:22.022Z,100.00
2022-09-15T22:32:48.526Z,100.00
2022-09-15T22:35:15.390Z,100.00
2022-09-15T22:37:41.827Z,100.00
2022-09-15T22:40:09.523Z,100.00
2022-09-15T22:42:36.267Z,100.00
2022-09-15T22:45:03.495Z,100.00
2022-09-15T22:47:32.441Z,100.00
2022-09-15T22:49:58.923Z,100.00
2022-09-15T22:52:25.365Z,100.00
2022-09-15T22:54:51.975Z,100.00
2022-09-15T22:57:18.454Z,100.00
2022-09-15T22:59:44.892Z,100.00
2022-09-15T23:02:11.452Z,100.00
2022-09-15T23:04:38.352Z,100.00
2022-09-15T23:07:05.476Z,100.00
2022-09-15T23:09:31.933Z,100.00
2022-09-15T23:11:58.502Z,100.00
2022-09-15T23:14:25.276Z,100.00
2022-09-15T23:16:51.872Z,100.00
2022-09-15T23:19:18.455Z,100.00
2022-09-15T23:21:44.963Z,100.00
2022-09-15T23:24:12.564Z,100.00
2022-09-15T23:26:39.146Z,100.00
2022-09-15T23:29:05.625Z,100.00
2022-09-15T23:31:32.180Z,100.00
2022-09-15T23:33:58.654Z,100.00
2022-09-15T23:36:25.112Z,100.00
2022-09-15T23:38:51.549Z,100.00
2022-09-15T23:41:18.560Z,100.00
2022-09-15T23:43:45.995Z,100.00
2022-09-15T23:46:12.618Z,100.00
2022-09-15T23:48:39.356Z,100.00
2022-09-15T23:51:06.008Z,100.00
2022-09-15T23:53:32.623Z,100.00
2022-09-15T23:55:59.805Z,100.00
2022-09-15T23:58:26.456Z,100.00
